This is the latest recevied weather packets stored in our database for station/object OK2ILA-10. If no packets are shown the sender has not sent any weather packets the latest 10 day(s).
| Time | Temp. | Humidity | Pressure | Rain* | Wind** | Luminosity | Snow |
|---|---|---|---|---|---|---|---|
| 1787991102 | 26.11° C | 50% | 1017.5 hPa | - | - | - | - |
| 1787990506 | 27.22° C | 49% | 1017.4 hPa | - | - | - | - |
| 1787990502 | 27.22° C | 49% | 1017.4 hPa | - | - | - | - |
| 1787989902 | 26.11° C | 51% | 1017.2 hPa | - | - | - | - |
| 1787989315 | 26.11° C | 51% | 1017 hPa | - | - | - | - |
| 1787989302 | 26.11° C | 51% | 1017 hPa | - | - | - | - |
| 1787988702 | 26.11° C | 53% | 1017 hPa | - | - | - | - |
| 1787988101 | 26.11° C | 54% | 1017 hPa | - | - | - | - |
| 1787987501 | 26.11° C | 56% | 1017 hPa | - | - | - | - |
| 1787986905 | 24.44° C | 59% | 1017.1 hPa | - | - | - | - |
| 1787986901 | 24.44° C | 59% | 1017.1 hPa | - | - | - | - |
| 1787986301 | 22.78° C | 66% | 1016.8 hPa | - | - | - | - |
| 1787985701 | 20° C | 72% | 1017.2 hPa | - | - | - | - |
| 1787985100 | 19.44° C | 75% | 1017.1 hPa | - | - | - | - |
| 1787984505 | 17.78° C | 79% | 1016.8 hPa | - | - | - | - |
| 1787984500 | 17.78° C | 79% | 1016.8 hPa | - | - | - | - |
| 1787983905 | 16.67° C | 83% | 1016.9 hPa | - | - | - | - |
| 1787983900 | 16.67° C | 83% | 1016.9 hPa | - | - | - | - |
| 1787983300 | 16.67° C | 84% | 1017 hPa | - | - | - | - |
| 1787982700 | 16.11° C | 84% | 1017 hPa | - | - | - | - |
| 1787982105 | 16.67° C | 84% | 1017.1 hPa | - | - | - | - |
| 1787982099 | 16.67° C | 84% | 1017.1 hPa | - | - | - | - |
| 1787981499 | 16.11° C | 84% | 1017 hPa | - | - | - | - |
| 1787980899 | 16.11° C | 85% | 1016 hPa | - | - | - | - |
| 1787980301 | 16.11° C | 84% | 1016 hPa | - | - | - | - |
* Rain since midnight (hover to see other rain measurements)
** Current wind speed in m/s (hover to see current wind gust speed)